createdAt,value
2018-04-18T00:00:19.805Z,11.50
2018-04-18T00:02:47.245Z,11.50
2018-04-18T00:05:14.702Z,11.50
2018-04-18T00:07:42.141Z,11.50
2018-04-18T00:10:10.364Z,11.50
2018-04-18T00:12:37.817Z,11.40
2018-04-18T00:15:05.261Z,11.50
2018-04-18T00:17:32.693Z,11.50
2018-04-18T00:20:00.162Z,11.40
2018-04-18T00:22:27.611Z,11.40
2018-04-18T00:24:55.048Z,11.40
2018-04-18T00:27:23.272Z,11.40
2018-04-18T00:29:50.717Z,11.40
2018-04-18T00:32:18.162Z,11.40
2018-04-18T00:34:45.627Z,11.40
2018-04-18T00:37:13.095Z,11.30
2018-04-18T00:39:40.502Z,11.30
2018-04-18T00:42:08.723Z,11.40
2018-04-18T00:44:36.160Z,11.30
2018-04-18T00:47:03.613Z,11.40
2018-04-18T00:49:31.068Z,11.40
2018-04-18T00:51:58.673Z,11.40
2018-04-18T00:54:26.108Z,11.40
2018-04-18T00:56:53.562Z,11.50
2018-04-18T00:59:21.010Z,11.50
2018-04-18T01:01:48.455Z,11.50
2018-04-18T01:04:15.904Z,11.40
2018-04-18T01:06:43.388Z,11.40
2018-04-18T01:09:10.834Z,11.50
2018-04-18T01:11:38.297Z,11.50
2018-04-18T01:14:05.745Z,11.50
2018-04-18T01:16:33.193Z,11.50
2018-04-18T01:19:00.658Z,11.50
2018-04-18T01:21:28.106Z,11.50
2018-04-18T01:23:55.570Z,11.50
2018-04-18T01:26:23.023Z,11.50
2018-04-18T01:28:50.610Z,11.50
2018-04-18T01:31:18.045Z,11.50
2018-04-18T01:33:45.504Z,11.50
2018-04-18T01:36:12.948Z,11.50
2018-04-18T01:38:40.399Z,11.50
2018-04-18T01:41:07.857Z,11.50
2018-04-18T01:43:35.312Z,11.40
2018-04-18T01:46:02.769Z,11.40
2018-04-18T01:48:30.228Z,11.40
2018-04-18T01:50:57.677Z,11.40
2018-04-18T01:53:25.111Z,11.40
2018-04-18T01:55:52.570Z,11.40
2018-04-18T01:58:20.014Z,11.40
2018-04-18T02:00:47.446Z,11.40
2018-04-18T02:03:15.688Z,11.40
2018-04-18T02:05:43.123Z,11.40
2018-04-18T02:08:10.565Z,11.40
2018-04-18T02:10:38.033Z,11.40
2018-04-18T02:13:05.489Z,11.40
2018-04-18T02:15:32.929Z,11.30
2018-04-18T02:18:00.402Z,11.30
2018-04-18T02:20:27.838Z,11.30
2018-04-18T02:22:55.288Z,11.30
2018-04-18T02:25:23.515Z,11.20
2018-04-18T02:27:50.958Z,11.20
2018-04-18T02:30:18.407Z,11.20
2018-04-18T02:32:45.863Z,11.20
2018-04-18T02:35:14.088Z,11.20
2018-04-18T02:37:42.288Z,11.10
2018-04-18T02:40:09.758Z,11.10
2018-04-18T02:42:37.209Z,11.10
2018-04-18T02:45:04.660Z,11.10
2018-04-18T02:47:32.139Z,11.10
2018-04-18T02:49:59.597Z,11.10
2018-04-18T02:52:27.036Z,11.10
2018-04-18T02:54:54.508Z,11.10
2018-04-18T02:57:22.723Z,10.90
2018-04-18T02:59:50.934Z,10.90
2018-04-18T03:02:19.209Z,10.90
2018-04-18T03:04:46.662Z,10.80
2018-04-18T03:07:14.116Z,10.80
2018-04-18T03:09:41.574Z,10.80
2018-04-18T03:12:09.033Z,10.70
2018-04-18T03:14:36.482Z,10.70
2018-04-18T03:17:03.938Z,10.70
2018-04-18T03:19:32.193Z,10.60
2018-04-18T03:21:59.643Z,10.60
2018-04-18T03:24:27.869Z,10.40
2018-04-18T03:26:55.318Z,10.40
2018-04-18T03:29:22.773Z,10.40
2018-04-18T03:31:50.242Z,10.30
2018-04-18T03:34:17.705Z,10.30
2018-04-18T03:36:45.153Z,10.30
2018-04-18T03:39:12.594Z,10.20
2018-04-18T03:41:40.064Z,10.20
2018-04-18T03:44:07.516Z,10.20
2018-04-18T03:46:34.964Z,10.20
2018-04-18T03:49:02.893Z,10.10
2018-04-18T03:51:30.336Z,10.10
2018-04-18T03:53:58.545Z,10.10
2018-04-18T03:56:26.025Z,10.00
2018-04-18T03:58:53.464Z,10.00
2018-04-18T04:01:20.908Z,10.00
2018-04-18T04:03:48.379Z,10.00
2018-04-18T04:06:15.873Z,10.00
2018-04-18T04:08:43.299Z,9.90
2018-04-18T04:11:10.777Z,9.90
2018-04-18T04:13:38.986Z,9.90
2018-04-18T04:16:06.420Z,9.90
2018-04-18T04:18:46.577Z,9.90
2018-04-18T04:21:26.616Z,9.90
2018-04-18T04:24:06.624Z,9.90
2018-04-18T04:26:34.048Z,9.90
2018-04-18T04:29:01.904Z,9.90
2018-04-18T04:31:29.384Z,9.90
2018-04-18T04:33:56.804Z,9.80
2018-04-18T04:36:25.026Z,9.80
2018-04-18T04:38:52.477Z,9.80
2018-04-18T04:41:19.918Z,9.80
2018-04-18T04:43:47.350Z,9.80
2018-04-18T04:46:15.564Z,9.80
2018-04-18T04:48:42.999Z,9.80
2018-04-18T04:51:10.442Z,9.80
2018-04-18T04:53:37.905Z,9.80
2018-04-18T04:56:05.440Z,9.80
2018-04-18T04:58:33.652Z,9.80
2018-04-18T05:01:01.104Z,9.80
2018-04-18T05:03:28.532Z,9.80
2018-04-18T05:05:55.977Z,9.90
2018-04-18T05:08:24.193Z,9.90
2018-04-18T05:10:51.641Z,9.90
2018-04-18T05:13:19.075Z,9.90
2018-04-18T05:15:46.520Z,9.90
2018-04-18T05:18:13.969Z,9.90
2018-04-18T05:20:42.179Z,9.90
2018-04-18T05:23:09.646Z,9.90
2018-04-18T05:25:37.084Z,10.00
2018-04-18T05:28:04.520Z,10.00
2018-04-18T05:30:31.994Z,10.00
2018-04-18T05:32:59.448Z,10.00
2018-04-18T05:35:27.028Z,10.00
2018-04-18T05:37:54.481Z,10.10
2018-04-18T05:40:21.916Z,10.10
2018-04-18T05:42:49.357Z,10.10
2018-04-18T05:45:17.579Z,10.20
2018-04-18T05:47:45.033Z,10.20
2018-04-18T05:50:12.465Z,10.30
2018-04-18T05:52:39.931Z,10.30
2018-04-18T05:55:07.379Z,10.40
2018-04-18T05:57:34.822Z,10.50
2018-04-18T06:00:02.290Z,10.60
2018-04-18T06:02:29.716Z,10.80
2018-04-18T06:04:57.923Z,11.10
2018-04-18T06:07:25.378Z,11.10
2018-04-18T06:09:52.836Z,11.20
2018-04-18T06:12:20.293Z,11.40
2018-04-18T06:14:47.745Z,11.50
2018-04-18T06:17:15.195Z,11.60
2018-04-18T06:19:42.640Z,11.70
2018-04-18T06:22:10.086Z,11.70
2018-04-18T06:24:38.288Z,11.80
2018-04-18T06:27:05.737Z,11.80
2018-04-18T06:29:33.201Z,11.80
2018-04-18T06:32:00.646Z,11.90
2018-04-18T06:34:28.077Z,12.00
2018-04-18T06:36:55.524Z,12.10
2018-04-18T06:39:23.736Z,12.40
2018-04-18T06:41:51.172Z,12.30
2018-04-18T06:44:18.638Z,12.50
2018-04-18T06:46:46.100Z,12.60
2018-04-18T06:49:13.537Z,12.80
2018-04-18T06:51:40.981Z,13.00
2018-04-18T06:54:09.186Z,13.40
2018-04-18T06:56:36.624Z,13.30
2018-04-18T06:59:04.097Z,13.50
2018-04-18T07:01:31.546Z,13.70
2018-04-18T07:03:58.987Z,13.80
2018-04-18T07:06:26.443Z,13.90
2018-04-18T07:08:53.885Z,14.00
2018-04-18T07:11:22.093Z,14.30
2018-04-18T07:13:49.560Z,14.30
2018-04-18T07:16:17.012Z,14.40
2018-04-18T07:18:44.448Z,14.50
2018-04-18T07:21:12.209Z,14.60
2018-04-18T07:23:40.621Z,14.80
2018-04-18T07:26:08.086Z,14.80
2018-04-18T07:28:35.549Z,14.90
2018-04-18T07:31:03.003Z,15.00
2018-04-18T07:33:30.447Z,15.10
2018-04-18T07:35:57.915Z,15.20
2018-04-18T07:38:25.358Z,15.20
2018-04-18T07:40:52.797Z,15.30
2018-04-18T07:43:20.251Z,15.40
2018-04-18T07:45:47.702Z,15.50
2018-04-18T07:48:15.124Z,15.50
2018-04-18T07:50:43.356Z,15.70
2018-04-18T07:58:54.266Z,15.90
2018-04-18T08:04:12.308Z,16.00
2018-04-18T08:06:40.508Z,16.20
2018-04-18T08:09:07.945Z,16.20
2018-04-18T08:11:35.419Z,16.30
2018-04-18T08:14:02.857Z,16.40
2018-04-18T08:16:30.301Z,16.40
2018-04-18T08:18:57.770Z,16.50
2018-04-18T08:21:25.246Z,16.60
2018-04-18T08:23:52.686Z,16.60
2018-04-18T08:26:20.909Z,16.70
2018-04-18T08:28:48.381Z,16.70
2018-04-18T08:31:15.815Z,16.70
2018-04-18T08:33:43.254Z,16.80
2018-04-18T08:36:11.482Z,16.90
2018-04-18T08:38:38.931Z,16.90
2018-04-18T08:41:06.373Z,17.00
2018-04-18T08:43:33.842Z,17.10
2018-04-18T08:46:01.289Z,17.10
2018-04-18T08:48:28.739Z,17.20
2018-04-18T08:50:56.211Z,17.30
2018-04-18T08:53:23.657Z,17.40
2018-04-18T08:55:51.118Z,17.50
2018-04-18T08:58:18.596Z,17.60
2018-04-18T09:00:46.043Z,17.60
2018-04-18T09:03:13.493Z,17.70
2018-04-18T09:05:40.960Z,17.70
2018-04-18T09:08:08.405Z,17.80
2018-04-18T09:10:35.862Z,17.80
2018-04-18T09:13:03.309Z,17.80
2018-04-18T09:15:30.769Z,17.90
2018-04-18T09:17:58.220Z,17.90
2018-04-18T09:20:25.689Z,18.00
2018-04-18T09:22:53.151Z,18.00
2018-04-18T09:25:20.601Z,18.10
2018-04-18T09:27:48.048Z,18.10
2018-04-18T09:30:15.549Z,18.20
2018-04-18T09:32:44.062Z,18.30
2018-04-18T09:35:11.522Z,18.30
2018-04-18T09:37:38.993Z,18.30
2018-04-18T09:40:06.434Z,18.40
2018-04-18T09:42:33.883Z,18.50
2018-04-18T09:45:01.365Z,18.60
2018-04-18T09:47:29.564Z,18.60
2018-04-18T09:49:57.004Z,18.60
2018-04-18T09:52:24.482Z,18.60
2018-04-18T09:54:52.689Z,18.70
2018-04-18T09:57:20.170Z,18.70
2018-04-18T09:59:47.653Z,18.80
2018-04-18T10:02:17.972Z,18.80
2018-04-18T10:04:45.420Z,18.90
2018-04-18T10:07:12.879Z,18.90
2018-04-18T10:09:41.097Z,19.10
2018-04-18T10:12:08.542Z,19.00
2018-04-18T10:14:36.762Z,19.20
2018-04-18T10:17:04.217Z,19.20
2018-04-18T10:19:31.654Z,19.30
2018-04-18T10:21:59.084Z,19.40
2018-04-18T10:24:27.322Z,19.60
2018-04-18T10:26:54.794Z,19.60
2018-04-18T10:29:22.241Z,19.70
2018-04-18T10:31:49.713Z,19.70
2018-04-18T10:34:17.918Z,19.90
2018-04-18T10:36:45.378Z,19.90
2018-04-18T10:39:12.835Z,19.90
2018-04-18T10:41:40.308Z,20.00
2018-04-18T10:44:07.761Z,20.00
2018-04-18T10:46:35.217Z,20.00
2018-04-18T10:49:02.702Z,20.10
2018-04-18T10:51:30.136Z,20.20
2018-04-18T10:53:57.573Z,20.30
2018-04-18T10:56:25.033Z,20.40
2018-04-18T10:58:52.484Z,20.40
2018-04-18T11:01:19.934Z,20.50
2018-04-18T11:03:47.401Z,20.60
2018-04-18T11:06:14.873Z,20.60
2018-04-18T11:08:42.330Z,20.70
2018-04-18T11:11:09.768Z,20.80
2018-04-18T11:13:37.229Z,20.90
2018-04-18T11:16:04.698Z,20.90
2018-04-18T11:18:32.141Z,21.00
2018-04-18T11:20:59.995Z,21.10
2018-04-18T11:23:27.460Z,21.20
2018-04-18T11:25:54.907Z,21.20
2018-04-18T11:28:22.358Z,21.30
2018-04-18T11:30:49.834Z,21.40
2018-04-18T11:33:17.277Z,21.40
2018-04-18T11:35:44.745Z,21.50
2018-04-18T11:38:12.189Z,21.60
2018-04-18T11:40:39.663Z,21.60
2018-04-18T11:43:07.111Z,21.70
2018-04-18T11:45:34.563Z,21.80
2018-04-18T11:48:02.032Z,21.90
2018-04-18T11:50:29.468Z,22.00
2018-04-18T11:52:56.925Z,22.00
2018-04-18T11:55:24.392Z,22.10
2018-04-18T11:57:51.832Z,22.20
2018-04-18T12:00:19.295Z,22.20
2018-04-18T12:02:46.742Z,22.30
2018-04-18T12:05:14.187Z,22.40
2018-04-18T12:07:41.662Z,22.40
2018-04-18T12:10:09.117Z,22.40
2018-04-18T12:12:36.558Z,22.50
2018-04-18T12:15:04.019Z,22.60
2018-04-18T12:17:31.464Z,22.70
2018-04-18T12:19:58.950Z,22.60
2018-04-18T12:22:26.400Z,22.60
2018-04-18T12:24:53.829Z,22.60
2018-04-18T12:27:21.504Z,22.70
2018-04-18T12:29:48.952Z,22.70
2018-04-18T12:32:16.419Z,22.80
2018-04-18T12:34:43.921Z,22.80
2018-04-18T12:37:11.366Z,22.90
2018-04-18T12:39:38.815Z,23.00
2018-04-18T12:42:06.292Z,23.00
2018-04-18T12:44:34.505Z,23.00
2018-04-18T12:47:01.946Z,23.00
2018-04-18T12:49:29.400Z,23.00
2018-04-18T12:51:56.846Z,23.00
2018-04-18T12:54:25.129Z,23.10
2018-04-18T12:56:52.540Z,23.00
2018-04-18T12:59:19.977Z,23.10
2018-04-18T13:01:47.440Z,23.20
2018-04-18T13:04:14.896Z,23.20
2018-04-18T13:06:42.345Z,23.30
2018-04-18T13:09:09.866Z,23.30
2018-04-18T13:11:37.320Z,23.40
2018-04-18T13:14:04.761Z,23.40
2018-04-18T13:16:33.000Z,23.50
2018-04-18T13:19:00.458Z,23.50
2018-04-18T13:21:27.890Z,23.60
2018-04-18T13:23:55.352Z,23.60
2018-04-18T13:26:22.803Z,23.70
2018-04-18T13:28:50.272Z,23.60
2018-04-18T13:31:17.715Z,23.60
2018-04-18T13:33:45.176Z,23.60
2018-04-18T13:36:12.660Z,23.60
2018-04-18T13:38:40.092Z,23.60
2018-04-18T13:41:07.527Z,23.60
2018-04-18T13:43:34.994Z,23.60
2018-04-18T13:46:02.438Z,23.70
2018-04-18T13:48:29.893Z,23.70
2018-04-18T13:50:57.332Z,23.70
2018-04-18T13:53:24.801Z,23.70
2018-04-18T13:55:52.243Z,23.80
2018-04-18T13:58:19.714Z,23.80
2018-04-18T14:00:47.147Z,23.80
2018-04-18T14:03:14.587Z,23.80
2018-04-18T14:05:42.800Z,23.90
2018-04-18T14:08:10.242Z,23.90
2018-04-18T14:10:37.707Z,24.00
2018-04-18T14:13:05.147Z,24.00
2018-04-18T14:15:32.600Z,24.00
2018-04-18T14:18:00.065Z,24.00
2018-04-18T14:20:27.508Z,24.10
2018-04-18T14:22:54.944Z,24.10
2018-04-18T14:25:23.169Z,24.30
2018-04-18T14:27:50.622Z,24.30
2018-04-18T14:30:18.073Z,24.30
2018-04-18T14:32:45.532Z,24.30
2018-04-18T14:35:12.991Z,24.40
2018-04-18T14:37:40.501Z,24.50
2018-04-18T14:40:07.900Z,24.70
2018-04-18T14:42:35.349Z,24.80
2018-04-18T14:45:03.201Z,25.00
2018-04-18T14:47:30.668Z,25.30
2018-04-18T14:49:58.105Z,25.60
2018-04-18T14:52:25.586Z,26.20
2018-04-18T14:54:53.023Z,27.30
2018-04-18T14:57:20.474Z,29.90
2018-04-18T14:59:47.937Z,32.70
2018-04-18T15:02:15.376Z,35.30
2018-04-18T15:04:42.817Z,37.80
2018-04-18T15:07:11.053Z,41.70
2018-04-18T15:09:38.502Z,41.50
2018-04-18T15:12:05.949Z,43.30
2018-04-18T15:14:33.415Z,44.40
2018-04-18T15:17:00.860Z,45.30
2018-04-18T15:19:28.296Z,45.90
2018-04-18T15:21:55.773Z,46.80
2018-04-18T15:24:23.207Z,47.60
2018-04-18T15:26:50.668Z,48.30
2018-04-18T15:29:18.184Z,48.70
2018-04-18T15:31:45.666Z,49.10
2018-04-18T15:34:13.084Z,49.20
2018-04-18T15:36:40.563Z,49.60
2018-04-18T15:39:08.785Z,49.90
2018-04-18T15:41:36.230Z,49.90
2018-04-18T15:44:04.458Z,50.30
2018-04-18T15:46:32.698Z,50.50
2018-04-18T15:49:00.142Z,50.50
2018-04-18T15:51:27.591Z,50.70
2018-04-18T15:53:56.640Z,50.90
2018-04-18T15:56:24.084Z,51.00
2018-04-18T15:58:51.521Z,51.10
2018-04-18T16:01:19.032Z,51.20
2018-04-18T16:03:46.424Z,51.00
2018-04-18T16:06:13.895Z,50.60
2018-04-18T16:08:41.347Z,50.50
2018-04-18T16:11:08.818Z,50.50
2018-04-18T16:13:36.297Z,50.40
2018-04-18T16:16:04.498Z,49.90
2018-04-18T16:18:31.936Z,49.90
2018-04-18T16:20:59.406Z,49.60
2018-04-18T16:23:26.880Z,49.40
2018-04-18T16:25:54.353Z,48.80
2018-04-18T16:28:22.003Z,48.00
2018-04-18T16:30:49.669Z,47.50
2018-04-18T16:33:17.428Z,47.20
2018-04-18T16:35:45.170Z,46.80
2018-04-18T16:38:12.863Z,46.30
2018-04-18T16:40:40.548Z,45.50
2018-04-18T16:43:08.319Z,43.90
2018-04-18T16:45:36.003Z,41.50
2018-04-18T16:48:03.763Z,38.80
2018-04-18T16:50:31.446Z,36.50
2018-04-18T16:52:59.222Z,34.60
2018-04-18T16:55:26.879Z,32.90
2018-04-18T16:57:56.477Z,31.40
2018-04-18T17:00:24.261Z,29.90
2018-04-18T17:02:52.748Z,27.70
2018-04-18T17:05:21.151Z,26.80
2018-04-18T17:07:48.638Z,26.70
2018-04-18T17:10:16.103Z,26.10
2018-04-18T17:12:43.560Z,25.40
2018-04-18T17:15:11.037Z,24.80
2018-04-18T17:17:38.477Z,24.30
2018-04-18T17:20:05.972Z,23.80
2018-04-18T17:22:33.421Z,23.50
2018-04-18T17:25:00.859Z,23.10
2018-04-18T17:27:28.300Z,22.90
2018-04-18T17:29:55.778Z,22.60
2018-04-18T17:32:23.221Z,22.40
2018-04-18T17:34:50.712Z,22.20
2018-04-18T17:37:18.198Z,22.00
2018-04-18T17:39:46.861Z,21.90
2018-04-18T17:42:14.315Z,21.70
2018-04-18T17:44:42.540Z,21.50
2018-04-18T17:47:10.040Z,21.50
2018-04-18T17:49:38.320Z,21.20
2018-04-18T17:52:06.519Z,21.10
2018-04-18T17:54:33.988Z,21.00
2018-04-18T17:57:01.448Z,20.90
2018-04-18T17:59:28.887Z,20.80
2018-04-18T18:01:56.366Z,20.60
2018-04-18T18:04:23.808Z,20.50
2018-04-18T18:06:51.259Z,20.40
2018-04-18T18:09:18.711Z,20.30
2018-04-18T18:11:46.144Z,20.20
2018-04-18T18:14:14.369Z,20.00
2018-04-18T18:16:41.808Z,19.90
2018-04-18T18:19:10.045Z,19.80
2018-04-18T18:21:38.267Z,19.70
2018-04-18T18:24:05.733Z,19.70
2018-04-18T18:26:33.185Z,19.60
2018-04-18T18:29:00.721Z,19.50
2018-04-18T18:31:28.188Z,19.40
2018-04-18T18:33:55.631Z,19.30
2018-04-18T18:36:23.082Z,19.20
2018-04-18T18:38:50.541Z,19.10
2018-04-18T18:41:17.977Z,19.10
2018-04-18T18:43:46.203Z,18.90
2018-04-18T18:46:13.656Z,18.90
2018-04-18T18:48:41.111Z,18.80
2018-04-18T18:51:08.577Z,18.70
2018-04-18T18:53:36.044Z,18.50
2018-04-18T18:56:03.482Z,18.30
2018-04-18T18:58:30.943Z,18.20
2018-04-18T19:00:58.506Z,18.00
2018-04-18T19:03:25.940Z,17.80
2018-04-18T19:05:53.410Z,17.70
2018-04-18T19:08:20.880Z,17.60
2018-04-18T19:10:48.322Z,17.50
2018-04-18T19:13:15.770Z,17.40
2018-04-18T19:15:43.228Z,17.30
2018-04-18T19:18:10.674Z,17.20
2018-04-18T19:20:38.113Z,17.20
2018-04-18T19:23:05.578Z,17.20
2018-04-18T19:25:33.013Z,17.30
2018-04-18T19:28:00.456Z,17.30
2018-04-18T19:30:27.916Z,17.30
2018-04-18T19:32:55.368Z,17.30
2018-04-18T19:35:22.820Z,17.30
2018-04-18T19:37:50.288Z,17.30
2018-04-18T19:40:17.785Z,17.30
2018-04-18T19:42:45.230Z,17.30
2018-04-18T19:45:12.669Z,17.30
2018-04-18T19:47:40.220Z,17.20
2018-04-18T19:50:07.603Z,17.20
2018-04-18T19:52:35.046Z,17.10
2018-04-18T19:55:02.504Z,17.10
2018-04-18T19:57:29.952Z,17.10
2018-04-18T19:59:57.431Z,17.10
2018-04-18T20:02:24.913Z,17.10
2018-04-18T20:04:53.122Z,17.00
2018-04-18T20:07:20.579Z,17.00
2018-04-18T20:09:48.025Z,17.00
2018-04-18T20:12:15.474Z,17.00
2018-04-18T20:14:42.944Z,16.90
2018-04-18T20:17:10.387Z,16.90
2018-04-18T20:19:37.832Z,16.90
2018-04-18T20:22:06.062Z,16.80
2018-04-18T20:24:33.518Z,16.80
2018-04-18T20:27:00.956Z,16.80
2018-04-18T20:29:28.409Z,16.70
2018-04-18T20:31:55.880Z,16.70
2018-04-18T20:34:23.321Z,16.70
2018-04-18T20:36:50.784Z,16.60
2018-04-18T20:39:18.257Z,16.60
2018-04-18T20:41:54.508Z,16.60
2018-04-18T20:44:21.988Z,16.60
2018-04-18T20:46:49.439Z,16.50
2018-04-18T20:49:16.882Z,16.50
2018-04-18T20:51:44.341Z,16.40
2018-04-18T20:54:11.781Z,16.40
2018-04-18T20:56:39.274Z,16.40
2018-04-18T20:59:06.716Z,16.40
2018-04-18T21:01:34.149Z,16.30
2018-04-18T21:04:01.636Z,16.30
2018-04-18T21:06:29.093Z,16.30
2018-04-18T21:08:56.549Z,16.30
2018-04-18T21:11:24.013Z,16.30
2018-04-18T21:13:52.241Z,16.30
2018-04-18T21:16:19.709Z,16.30
2018-04-18T21:18:47.144Z,16.20
2018-04-18T21:21:14.599Z,16.20
2018-04-18T21:23:42.056Z,16.20
2018-04-18T21:26:09.518Z,16.20
2018-04-18T21:28:37.002Z,16.20
2018-04-18T21:31:04.474Z,16.20
2018-04-18T21:33:32.681Z,16.20
2018-04-18T21:36:00.131Z,16.10
2018-04-18T21:38:27.615Z,16.10
2018-04-18T21:40:55.047Z,16.10
2018-04-18T21:43:22.517Z,16.00
2018-04-18T21:45:49.998Z,16.00
2018-04-18T21:48:17.457Z,16.00
2018-04-18T21:50:44.909Z,16.00
2018-04-18T21:53:13.108Z,15.90
2018-04-18T21:55:40.592Z,15.90
2018-04-18T21:58:08.041Z,15.90
2018-04-18T22:00:35.484Z,15.90
2018-04-18T22:03:03.704Z,15.90
2018-04-18T22:05:31.153Z,15.80
2018-04-18T22:07:58.624Z,15.80
2018-04-18T22:10:26.069Z,15.80
2018-04-18T22:12:53.510Z,15.80
2018-04-18T22:15:20.986Z,15.80
2018-04-18T22:17:48.442Z,15.80
2018-04-18T22:20:15.891Z,15.80
2018-04-18T22:22:43.360Z,15.70
2018-04-18T22:25:10.830Z,15.70
2018-04-18T22:27:38.268Z,15.70
2018-04-18T22:30:05.738Z,15.60
2018-04-18T22:32:33.184Z,15.60
2018-04-18T22:35:00.617Z,15.60
2018-04-18T22:37:28.090Z,15.60
2018-04-18T22:39:55.541Z,15.60
2018-04-18T22:42:22.972Z,15.50
2018-04-18T22:44:50.438Z,15.60
2018-04-18T22:47:17.899Z,15.50
2018-04-18T22:49:45.345Z,15.50
2018-04-18T22:52:12.805Z,15.50
2018-04-18T22:54:40.364Z,15.50
2018-04-18T22:57:07.801Z,15.50
2018-04-18T22:59:35.236Z,15.50
2018-04-18T23:02:03.754Z,15.50
2018-04-18T23:04:31.198Z,15.50
2018-04-18T23:06:58.632Z,15.50
2018-04-18T23:09:28.334Z,15.50
2018-04-18T23:11:56.587Z,15.50
2018-04-18T23:14:24.037Z,15.50
2018-04-18T23:16:51.504Z,15.50
2018-04-18T23:19:18.950Z,15.50
2018-04-18T23:21:46.393Z,15.50
2018-04-18T23:24:13.864Z,15.50
2018-04-18T23:26:41.311Z,15.50
2018-04-18T23:29:08.765Z,15.40
2018-04-18T23:31:36.224Z,15.40
2018-04-18T23:34:03.776Z,15.40
2018-04-18T23:36:31.208Z,15.30
2018-04-18T23:38:58.656Z,15.30
2018-04-18T23:41:26.117Z,15.30
2018-04-18T23:43:53.573Z,15.30
2018-04-18T23:46:21.032Z,15.30
2018-04-18T23:48:48.495Z,15.30
2018-04-18T23:51:15.940Z,15.30
2018-04-18T23:53:43.405Z,15.30
2018-04-18T23:56:10.842Z,15.30
2018-04-18T23:58:38.309Z,15.30
